Time;durP1;ratioP1;P1;durP2;ratioP2;P2;SDS_P1;SDS_P2;PMS_P1;PMS_P2;Temp;Humidity;BMP_temperature;BMP_pressure;BME280_temperature;BME280_humidity;BME280_pressure;Samples;Min_cycle;Max_cycle;Signal;HPM_P1;HPM_P2
2023/03/06 00:03:29;;;;;;;7.38;1.77;;;;;;;2.33;100.00;100617.78;10397314;28;20060;-81
2023/03/06 00:08:29;;;;;;;7.45;1.98;;;;;;;2.44;100.00;100619.91;10412923;28;20041;-80
2023/03/06 00:13:30;;;;;;;7.18;1.95;;;;;;;2.28;100.00;100596.66;10364966;28;20034;-81
2023/03/06 00:18:32;;;;;;;4.15;1.55;;;;;;;2.39;100.00;100617.78;10355720;28;20149;-82
2023/03/06 00:23:32;;;;;;;5.93;1.77;;;;;;;2.41;100.00;100617.59;10339837;28;20041;-81
2023/03/06 00:28:33;;;;;;;5.72;1.77;;;;;;;2.42;100.00;100619.28;10356326;28;20038;-82
2023/03/06 00:33:34;;;;;;;4.57;1.23;;;;;;;1.10;100.00;100417.06;10357729;28;20081;-80
2023/03/06 00:38:36;;;;;;;1.52;0.85;;;;;;;2.24;100.00;100594.59;10338335;28;20186;-77
2023/03/06 00:43:36;;;;;;;3.90;1.00;;;;;;;2.02;100.00;100603.69;10337865;28;20691;-77
2023/03/06 00:48:37;;;;;;;1.05;0.90;;;;;;;1.85;100.00;100609.72;10372280;28;20090;-77
2023/03/06 00:53:37;;;;;;;1.20;1.02;;;;;;;1.56;100.00;100611.69;10324769;28;20398;-69
2023/03/06 00:58:38;;;;;;;3.47;1.00;;;;;;;1.21;100.00;100600.84;10359442;28;20064;-75
2023/03/06 01:03:38;;;;;;;4.00;1.50;;;;;;;1.06;100.00;100587.44;10370110;28;20052;-75
2023/03/06 01:08:39;;;;;;;3.08;1.17;;;;;;;0.96;100.00;100585.06;10410856;28;20046;-74
2023/03/06 01:13:39;;;;;;;2.83;1.35;;;;;;;0.87;100.00;100580.84;10411784;28;20037;-73
2023/03/06 01:18:40;;;;;;;1.77;1.33;;;;;;;0.68;100.00;100581.50;10396996;28;20041;-72
2023/03/06 01:23:40;;;;;;;4.68;2.10;;;;;;;0.64;100.00;100580.22;10394420;28;20080;-73
2023/03/06 01:28:41;;;;;;;1.88;1.63;;;;;;;0.55;100.00;100580.38;10365140;28;20038;-72
2023/03/06 01:33:41;;;;;;;3.72;1.55;;;;;;;0.39;100.00;100570.69;10355424;28;20057;-72
2023/03/06 01:38:41;;;;;;;3.85;1.52;;;;;;;0.42;100.00;100585.69;10353612;28;20537;-67
2023/03/06 01:43:43;;;;;;;3.70;1.50;;;;;;;0.35;100.00;100574.81;10354418;28;20065;-71
2023/03/06 01:48:44;;;;;;;1.77;1.58;;;;;;;0.28;100.00;100564.94;10375129;28;20045;-71
2023/03/06 01:53:44;;;;;;;3.78;1.95;;;;;;;0.29;100.00;100570.16;10377436;28;20055;-71
2023/03/06 01:58:45;;;;;;;2.70;1.80;;;;;;;0.14;100.00;100556.69;10336800;28;20062;-70
2023/03/06 02:03:46;;;;;;;3.15;2.00;;;;;;;0.16;100.00;100560.03;10397716;28;20045;-70
2023/03/06 02:08:48;;;;;;;2.47;2.08;;;;;;;0.11;100.00;100551.66;10410483;28;20034;-71
2023/03/06 02:13:49;;;;;;;2.75;1.83;;;;;;;0.14;100.00;100556.69;10394526;28;20041;-71
2023/03/06 02:18:50;;;;;;;2.05;1.83;;;;;;;0.14;100.00;100545.03;10393417;28;20041;-70
2023/03/06 02:24:10;;;;;;;2.33;2.08;;;;;;;0.16;100.00;100557.31;10408744;28;20044;-70
2023/03/06 02:29:10;;;;;;;2.92;1.80;;;;;;;0.08;100.00;100552.03;10403564;28;20053;-70
2023/03/06 02:34:14;;;;;;;3.67;2.20;;;;;;;0.13;100.00;100549.59;10392353;28;20036;-70
2023/03/06 02:39:14;;;;;;;3.35;2.08;;;;;;;0.17;100.00;100547.34;10411472;28;20087;-70
2023/03/06 02:44:14;;;;;;;3.67;2.30;;;;;;;0.10;100.00;100522.91;10408588;28;20057;-71
2023/03/06 02:49:15;;;;;;;3.83;2.63;;;;;;;0.21;100.00;100540.53;10408728;28;20525;-71
2023/03/06 02:54:17;;;;;;;3.42;2.55;;;;;;;0.15;100.00;100523.19;10408840;28;20045;-71
2023/03/06 02:59:17;;;;;;;3.50;2.45;;;;;;;0.18;100.00;100520.06;10407739;28;20034;-71
2023/03/06 03:04:18;;;;;;;2.95;2.15;;;;;;;0.22;100.00;100525.09;10393192;28;20416;-71
2023/03/06 03:09:18;;;;;;;7.25;2.42;;;;;;;0.24;100.00;100517.63;10409356;28;20064;-71
2023/03/06 03:14:19;;;;;;;5.05;2.20;;;;;;;0.19;100.00;100520.94;10409489;28;20445;-71
2023/03/06 03:19:19;;;;;;;5.32;2.85;;;;;;;0.19;100.00;100526.34;10409711;28;20068;-73
2023/03/06 03:24:20;;;;;;;2.92;1.60;;;;;;;0.12;100.00;100501.91;10410823;28;20054;-71
2023/03/06 03:29:20;;;;;;;2.78;1.65;;;;;;;0.22;100.00;100522.41;10406666;28;20046;-72
2023/03/06 03:34:21;;;;;;;3.50;1.80;;;;;;;0.22;100.00;100514.28;10394564;28;20097;-72
2023/03/06 03:39:21;;;;;;;3.33;2.40;;;;;;;0.18;100.00;100509.25;10375662;28;20402;-72
2023/03/06 03:44:22;;;;;;;4.78;3.22;;;;;;;0.16;100.00;100495.06;10358628;28;20045;-71
2023/03/06 03:49:22;;;;;;;4.97;2.72;;;;;;;0.13;100.00;100489.22;10357216;28;20107;-72
2023/03/06 03:54:23;;;;;;;4.53;2.70;;;;;;;0.12;100.00;100491.06;10373961;28;20490;-71
2023/03/06 03:59:23;;;;;;;3.15;2.53;;;;;;;-0.10;100.00;100467.78;10353483;28;20529;-71
2023/03/06 04:04:24;;;;;;;3.42;2.20;;;;;;;-0.06;100.00;100479.91;10399350;28;20394;-70
2023/03/06 04:09:25;;;;;;;4.43;2.33;;;;;;;-0.01;100.00;100488.25;10382460;28;20043;-72
2023/03/06 04:14:25;;;;;;;5.88;2.33;;;;;;;0.04;100.00;100477.66;10413868;28;20101;-71
2023/03/06 04:19:26;;;;;;;3.50;2.15;;;;;;;0.08;100.00;100472.72;10396578;28;20080;-72
2023/03/06 04:24:26;;;;;;;3.60;1.65;;;;;;;0.04;100.00;100474.97;10413711;28;20030;-72
2023/03/06 04:29:26;;;;;;;2.58;2.00;;;;;;;-0.07;100.00;100476.34;10414306;28;20034;-72
2023/03/06 04:34:27;;;;;;;6.45;2.50;;;;;;;-0.21;100.00;100467.28;10383345;28;20040;-72
2023/03/06 04:39:27;;;;;;;4.45;2.25;;;;;;;-0.18;100.00;100459.81;10390168;28;20613;-71
2023/03/06 04:44:28;;;;;;;3.17;2.20;;;;;;;-0.24;100.00;100451.41;10388738;28;20041;-72
2023/03/06 04:49:28;;;;;;;2.63;2.15;;;;;;;-0.21;100.00;100467.28;10395536;28;20065;-70
2023/03/06 04:54:29;;;;;;;3.67;1.92;;;;;;;-0.11;100.00;100476.91;10379937;28;20042;-73
2023/03/06 04:59:29;;;;;;;3.50;2.10;;;;;;;-0.19;100.00;100460.81;10395812;28;20582;-73
2023/03/06 05:04:30;;;;;;;3.05;2.05;;;;;;;-0.04;100.00;100469.72;10399940;28;20034;-73
2023/03/06 05:09:32;;;;;;;3.88;2.55;;;;;;;-0.47;100.00;100397.53;10339487;28;20041;-74
2023/03/06 05:14:32;;;;;;;3.55;2.60;;;;;;;-0.02;100.00;100470.38;10338433;28;20089;-73
2023/03/06 05:19:33;;;;;;;5.00;2.13;;;;;;;-0.27;100.00;100424.78;10328214;28;20052;-73
2023/03/06 05:24:33;;;;;;;4.63;2.78;;;;;;;-0.06;100.00;100469.91;10369608;28;20566;-75
2023/03/06 05:29:34;;;;;;;7.07;2.88;;;;;;;-0.03;100.00;100464.09;10370245;28;20042;-70
2023/03/06 05:34:34;;;;;;;5.45;2.85;;;;;;;-0.03;100.00;100463.25;10370125;28;20068;-73
2023/03/06 05:39:35;;;;;;;3.50;2.65;;;;;;;-0.08;100.00;100465.72;10369100;28;20086;-73
2023/03/06 05:44:35;;;;;;;4.65;2.30;;;;;;;-0.28;100.00;100433.91;10337195;28;20501;-73
2023/03/06 05:49:36;;;;;;;4.03;2.38;;;;;;;-0.18;100.00;100457.09;10367204;28;20084;-74
2023/03/06 05:54:36;;;;;;;5.85;2.63;;;;;;;-0.23;100.00;100474.75;10402658;28;20041;-73
2023/03/06 05:59:37;;;;;;;5.80;2.72;;;;;;;-0.23;100.00;100453.09;10409449;28;20323;-73
2023/03/06 06:04:37;;;;;;;7.72;3.83;;;;;;;-0.28;100.00;100439.31;10331672;28;20038;-76
2023/03/06 06:09:38;;;;;;;8.75;4.28;;;;;;;-0.40;100.00;100432.75;10296156;28;20097;-73
2023/03/06 06:14:38;;;;;;;8.77;4.15;;;;;;;-0.33;100.00;100458.00;10314634;28;20061;-73
2023/03/06 06:19:39;;;;;;;9.85;4.00;;;;;;;-0.50;100.00;100430.34;10360569;28;20042;-73
2023/03/06 06:24:39;;;;;;;9.77;4.45;;;;;;;-0.49;100.00;100431.22;10352519;28;20091;-73
2023/03/06 06:29:40;;;;;;;9.88;3.92;;;;;;;-0.33;100.00;100463.41;10376406;28;20038;-73
2023/03/06 06:34:40;;;;;;;8.25;3.75;;;;;;;-0.38;100.00;100449.63;10375817;28;20311;-76
2023/03/06 06:39:41;;;;;;;6.55;4.15;;;;;;;-0.42;100.00;100448.31;10391793;28;20473;-75
2023/03/06 06:44:41;;;;;;;8.23;4.38;;;;;;;-0.50;100.00;100440.34;10375348;28;20038;-73
2023/03/06 06:49:42;;;;;;;7.38;3.92;;;;;;;-0.42;100.00;100453.72;10390279;28;20048;-73
2023/03/06 06:54:43;;;;;;;9.25;4.18;;;;;;;-0.48;100.00;100449.09;10391943;28;20041;-70
2023/03/06 06:59:43;;;;;;;9.45;4.22;;;;;;;-0.49;100.00;100459.09;10379751;28;20437;-75
2023/03/06 07:04:44;;;;;;;15.85;6.95;;;;;;;-0.50;100.00;100454.69;10392048;28;20044;-76
2023/03/06 07:09:44;;;;;;;14.32;6.38;;;;;;;-0.54;100.00;100433.63;10395098;28;20041;-75
2023/03/06 07:14:45;;;;;;;18.63;6.15;;;;;;;-0.33;100.00;100458.00;10399275;28;20069;-73
2023/03/06 07:19:46;;;;;;;18.13;6.53;;;;;;;-0.30;100.00;100454.06;10414186;28;20042;-72
2023/03/06 07:24:47;;;;;;;21.90;6.57;;;;;;;-0.22;100.00;100460.19;10372334;28;20033;-75
2023/03/06 07:29:48;;;;;;;15.25;6.30;;;;;;;-0.08;100.00;100461.16;10346332;28;20042;-75
2023/03/06 07:34:48;;;;;;;16.30;7.18;;;;;;;0.09;100.00;100467.13;10302235;28;20535;-74
2023/03/06 07:39:49;;;;;;;22.25;8.10;;;;;;;0.28;100.00;100453.94;10333845;28;20073;-72
2023/03/06 07:44:49;;;;;;;17.65;8.20;;;;;;;0.38;100.00;100459.84;10334015;28;20039;-72
2023/03/06 07:49:53;;;;;;;20.55;8.30;;;;;;;0.42;100.00;100471.94;10317902;28;20436;-72
2023/03/06 07:54:54;;;;;;;23.00;8.77;;;;;;;0.38;100.00;100484.22;10374670;28;20106;-73
2023/03/06 07:59:54;;;;;;;23.92;8.68;;;;;;;0.26;100.00;100480.38;10362030;28;20068;-74
2023/03/06 08:04:55;;;;;;;14.02;6.68;;;;;;;0.14;100.00;100470.06;10397735;28;20064;-73
2023/03/06 08:09:55;;;;;;;10.95;5.75;;;;;;;0.14;100.00;100475.47;10397515;28;20098;-72
2023/03/06 08:14:56;;;;;;;11.43;5.22;;;;;;;0.04;100.00;100472.25;10413157;28;20037;-73
2023/03/06 08:19:56;;;;;;;12.13;4.82;;;;;;;0.08;100.00;100487.06;10379755;28;20096;-73
2023/03/06 08:24:57;;;;;;;7.70;4.38;;;;;;;0.22;100.00;100490.75;10397990;28;20083;-74
2023/03/06 08:29:58;;;;;;;10.35;4.65;;;;;;;0.24;100.00;100479.72;10414098;28;20033;-74
2023/03/06 08:35:00;;;;;;;10.00;4.85;;;;;;;0.46;100.00;100497.59;10344544;28;20050;-70
2023/03/06 08:40:03;;;;;;;9.38;4.13;;;;;;;0.66;100.00;100499.59;10397069;28;20052;-73
2023/03/06 08:45:05;;;;;;;8.10;4.25;;;;;;;0.88;100.00;100495.78;10396079;28;20038;-75
2023/03/06 08:50:05;;;;;;;10.23;4.10;;;;;;;0.73;100.00;100430.03;10397314;28;20040;-75
2023/03/06 08:55:06;;;;;;;6.85;3.75;;;;;;;1.25;100.00;100482.81;10359062;28;20046;-76
2023/03/06 09:00:07;;;;;;;5.72;3.60;;;;;;;1.31;100.00;100487.44;10368773;28;20049;-76
2023/03/06 09:05:08;;;;;;;5.38;3.33;;;;;;;1.46;100.00;100505.44;10351817;28;20042;-76
2023/03/06 09:10:13;;;;;;;6.68;3.67;;;;;;;0.78;100.00;100411.28;10346190;28;20042;-75
2023/03/06 09:15:13;;;;;;;5.45;3.28;;;;;;;1.51;100.00;100479.38;10370584;28;20465;-74
2023/03/06 09:20:14;;;;;;;8.35;3.00;;;;;;;1.68;100.00;100479.81;10372770;28;20041;-75
2023/03/06 09:25:19;;;;;;;6.28;3.70;;;;;;;1.91;100.00;100484.03;10373505;28;20536;-74
2023/03/06 09:30:19;;;;;;;8.35;3.35;;;;;;;2.33;100.00;100469.19;10358190;28;20502;-74
2023/03/06 09:35:20;;;;;;;5.18;2.85;;;;;;;2.73;100.00;100458.28;10350538;28;20031;-75
2023/03/06 09:40:28;;;;;;;7.57;2.85;;;;;;;2.86;100.00;100451.97;10350884;28;20026;-75
2023/03/06 09:45:28;;;;;;;4.63;1.50;;;;;;;3.20;100.00;100458.09;10326511;28;20046;-76
2023/03/06 09:50:37;;;;;;;4.85;1.88;;;;;;;3.41;100.00;100438.75;10333865;28;20033;-75
2023/03/06 09:55:38;;;;;;;5.90;1.63;;;;;;;3.77;100.00;100429.09;10357958;28;20035;-74
2023/03/06 10:00:41;;;;;;;7.78;2.72;;;;;;;4.14;100.00;100437.41;10334865;28;20494;-75
2023/03/06 10:06:23;;;;;;;3.38;0.77;;;;;;;4.15;100.00;100432.78;10371080;28;20041;-74
2023/03/06 10:11:31;;;;;;;2.08;1.02;;;;;;;4.45;100.00;100432.94;10373820;28;20115;-73
2023/03/06 10:16:31;;;;;;;2.97;0.88;;;;;;;4.52;100.00;100405.59;10389309;28;20034;-74
2023/03/06 10:21:53;;;;;;;2.65;0.65;;;;;;;4.57;100.00;100414.78;10406597;28;20033;-74
2023/03/06 10:27:00;;;;;;;2.90;0.73;;;;;;;4.84;100.00;100419.94;10379105;28;20124;-75
2023/03/06 10:32:30;;;;;;;0.60;0.50;;;;;;;4.83;100.00;100423.72;10409943;28;20101;-73
2023/03/06 10:37:30;;;;;;;2.15;0.90;;;;;;;4.75;100.00;100430.28;10368722;28;20042;-73
2023/03/06 10:42:31;;;;;;;1.65;0.55;;;;;;;4.83;100.00;100396.44;10369108;28;20034;-72
2023/03/06 10:47:34;;;;;;;1.35;0.60;;;;;;;4.98;100.00;100410.53;10385698;28;20049;-73
2023/03/06 10:52:34;;;;;;;2.65;0.82;;;;;;;5.00;100.00;100408.41;10381107;28;20042;-72
2023/03/06 10:57:35;;;;;;;2.58;0.60;;;;;;;5.14;100.00;100410.97;10368488;28;20049;-74
2023/03/06 11:02:37;;;;;;;3.85;0.57;;;;;;;5.38;100.00;100406.44;10351783;28;20060;-74
2023/03/06 11:07:51;;;;;;;3.72;0.82;;;;;;;5.26;100.00;100403.66;10368129;28;20045;-74
2023/03/06 11:12:55;;;;;;;1.27;0.70;;;;;;;5.15;100.00;100399.81;10377925;28;20048;-75
2023/03/06 11:17:59;;;;;;;1.70;0.70;;;;;;;5.21;100.00;100392.63;10368925;28;20068;-76
2023/03/06 11:23:07;;;;;;;3.42;0.50;;;;;;;5.36;100.00;100373.09;10351118;28;20034;-76
2023/03/06 11:28:27;;;;;;;2.88;0.50;;;;;;;5.75;100.00;100359.91;10366767;28;20042;-76
2023/03/06 11:33:39;;;;;;;4.00;0.40;;;;;;;6.30;100.00;100361.50;10353336;28;20394;-75
2023/03/06 11:38:48;;;;;;;2.72;0.70;;;;;;;6.62;100.00;100346.34;10351124;28;20061;-76
2023/03/06 11:44:14;;;;;;;1.77;0.50;;;;;;;6.76;100.00;100327.78;10362874;28;20044;-76
2023/03/06 11:49:23;;;;;;;5.00;0.57;;;;;;;7.03;100.00;100344.44;10335902;28;20105;-74
2023/03/06 11:54:23;;;;;;;2.75;0.40;;;;;;;6.91;100.00;100329.97;10327576;28;20038;-74
2023/03/06 11:59:33;;;;;;;1.85;0.20;;;;;;;6.72;100.00;100326.59;10322898;28;20062;-74
2023/03/06 12:05:10;;;;;;;1.05;0.30;;;;;;;6.19;100.00;100308.50;10354259;28;20578;-75
2023/03/06 12:10:26;;;;;;;3.55;0.88;;;;;;;6.18;100.00;100328.69;10399126;28;20081;-75
2023/03/06 12:15:35;;;;;;;2.25;0.77;;;;;;;6.66;100.00;100311.97;10312031;28;20526;-75
2023/03/06 12:20:55;;;;;;;2.90;0.85;;;;;;;6.58;100.00;100312.34;10335957;28;20110;-74
2023/03/06 12:26:07;;;;;;;1.85;0.30;;;;;;;6.42;100.00;100307.63;10333999;28;20042;-76
2023/03/06 12:31:27;;;;;;;1.33;0.40;;;;;;;5.91;100.00;100263.56;10333629;28;20030;-74
2023/03/06 12:36:46;;;;;;;2.22;0.30;;;;;;;5.95;100.00;100285.81;10334217;28;20044;-74
2023/03/06 12:42:01;;;;;;;1.05;0.30;;;;;;;6.12;100.00;100292.22;10372765;28;20485;-74
2023/03/06 12:47:05;;;;;;;2.42;0.38;;;;;;;6.38;100.00;100281.84;10372992;28;20038;-73
2023/03/06 12:52:09;;;;;;;3.10;0.28;;;;;;;6.89;99.75;100249.22;10325051;28;20068;-74
2023/03/06 12:57:12;;;;;;;1.23;0.40;;;;;;;7.34;97.83;100242.84;10356941;28;20037;-74
2023/03/06 13:02:12;;;;;;;2.08;0.60;;;;;;;8.15;98.03;100246.00;10337956;28;20069;-75
2023/03/06 13:07:21;;;;;;;3.28;0.40;;;;;;;8.21;93.73;100242.25;10371232;28;20049;-74
2023/03/06 13:12:48;;;;;;;3.90;0.30;;;;;;;7.99;96.16;100238.66;10374288;28;20116;-74
2023/03/06 13:17:49;;;;;;;2.55;0.30;;;;;;;8.22;97.29;100240.34;10355453;28;20462;-74
2023/03/06 13:22:49;;;;;;;1.38;0.50;;;;;;;7.51;93.30;100220.97;10354163;28;20045;-73
2023/03/06 13:27:53;;;;;;;1.30;0.47;;;;;;;7.23;98.11;100234.47;10353849;28;20030;-73
2023/03/06 13:32:53;;;;;;;2.35;0.40;;;;;;;6.51;97.86;100232.34;10372414;28;20072;-74
2023/03/06 13:37:54;;;;;;;2.22;0.80;;;;;;;6.24;99.10;100238.38;10371716;28;20037;-73
2023/03/06 13:43:07;;;;;;;1.63;0.82;;;;;;;6.16;99.79;100235.16;10354801;28;20889;-73
2023/03/06 13:48:22;;;;;;;5.88;0.93;;;;;;;6.10;100.00;100209.66;10369364;28;20601;-73
2023/03/06 13:53:45;;;;;;;0.98;0.70;;;;;;;6.36;100.00;100230.13;10351179;28;20042;-73
2023/03/06 13:59:23;;;;;;;1.63;0.40;;;;;;;6.28;100.00;100216.00;10372909;28;20048;-73
2023/03/06 14:04:33;;;;;;;1.65;0.50;;;;;;;6.36;100.00;100216.44;10370674;28;20033;-73
2023/03/06 14:09:40;;;;;;;2.58;0.40;;;;;;;6.16;100.00;100191.44;10372078;28;20076;-72
2023/03/06 14:14:47;;;;;;;2.55;0.60;;;;;;;6.01;100.00;100194.69;10374399;28;20046;-74
2023/03/06 14:19:48;;;;;;;1.83;0.55;;;;;;;5.94;100.00;100178.41;10393996;28;20057;-73
2023/03/06 14:24:54;;;;;;;1.48;0.50;;;;;;;5.89;100.00;100186.50;10336369;28;20046;-73
2023/03/06 14:30:07;;;;;;;0.80;0.47;;;;;;;5.92;100.00;100157.84;10374862;28;20435;-73
2023/03/06 14:35:21;;;;;;;2.00;0.40;;;;;;;6.06;100.00;100167.47;10418194;28;20047;-74
2023/03/06 14:40:30;;;;;;;1.10;0.40;;;;;;;5.94;100.00;100161.19;10343513;28;20049;-73
2023/03/06 14:45:31;;;;;;;3.97;0.93;;;;;;;5.91;100.00;100150.72;10366684;28;20049;-73
2023/03/06 14:50:32;;;;;;;2.50;0.70;;;;;;;5.96;100.00;100145.41;10347009;28;20046;-74
2023/03/06 14:55:33;;;;;;;0.70;0.40;;;;;;;5.93;100.00;100126.72;10367415;28;20038;-73
2023/03/06 15:00:36;;;;;;;1.13;0.60;;;;;;;5.77;99.25;100112.75;10335957;28;20133;-73
2023/03/06 15:05:37;;;;;;;2.40;0.60;;;;;;;5.78;100.00;100114.41;10364660;28;20057;-74
2023/03/06 15:10:37;;;;;;;1.38;0.50;;;;;;;5.80;100.00;100116.91;10356952;28;20054;-75
2023/03/06 15:15:38;;;;;;;1.65;0.52;;;;;;;5.65;100.00;100111.94;10369256;28;20051;-74
2023/03/06 15:20:43;;;;;;;2.28;0.60;;;;;;;5.49;100.00;100115.41;10354573;28;20041;-74
2023/03/06 15:25:51;;;;;;;3.00;0.57;;;;;;;5.21;100.00;100078.78;10411464;28;20060;-74
2023/03/06 15:31:09;;;;;;;2.70;0.70;;;;;;;5.37;100.00;100102.59;10356075;28;20061;-73
2023/03/06 15:36:20;;;;;;;3.25;0.95;;;;;;;5.15;100.00;100079.75;10397100;28;20040;-73
2023/03/06 15:41:29;;;;;;;2.75;0.70;;;;;;;5.08;100.00;100059.91;10399416;28;20128;-74
2023/03/06 15:46:29;;;;;;;1.77;1.00;;;;;;;5.15;100.00;100066.09;10416928;28;20033;-73
2023/03/06 15:51:30;;;;;;;5.32;1.65;;;;;;;5.03;100.00;100068.81;10382886;28;20409;-74
2023/03/06 15:56:32;;;;;;;2.50;0.52;;;;;;;4.81;100.00;100041.28;10399519;28;20044;-73
2023/03/06 16:01:33;;;;;;;1.00;0.40;;;;;;;4.85;100.00;100050.66;10444508;28;20040;-81
2023/03/06 16:06:33;;;;;;;3.00;0.60;;;;;;;4.81;100.00;100035.84;10406645;28;20447;-84
2023/03/06 16:11:36;;;;;;;2.40;0.40;;;;;;;4.86;100.00;100046.88;10457276;28;20041;-80
2023/03/06 16:16:38;;;;;;;4.90;0.65;;;;;;;4.67;100.00;100031.69;10440883;28;20040;-75
2023/03/06 16:21:38;;;;;;;3.63;0.80;;;;;;;4.61;100.00;100034.31;10458455;28;20045;-81
2023/03/06 16:26:40;;;;;;;1.45;0.70;;;;;;;4.60;100.00;100031.81;10456479;28;20037;-80
2023/03/06 16:31:41;;;;;;;1.67;0.98;;;;;;;4.42;100.00;100013.63;10397551;28;20045;-80
2023/03/06 16:36:41;;;;;;;2.67;0.70;;;;;;;4.39;100.00;100014.13;10380830;28;20045;-80
2023/03/06 16:41:43;;;;;;;1.63;0.65;;;;;;;4.38;100.00;100013.31;10397204;28;20076;-79
2023/03/06 16:46:45;;;;;;;0.93;0.60;;;;;;;4.39;100.00;100019.56;10397778;28;20037;-77
2023/03/06 16:51:46;;;;;;;3.72;0.80;;;;;;;4.15;100.00;99992.25;10413011;28;20029;-81
2023/03/06 16:56:46;;;;;;;0.75;0.57;;;;;;;4.17;100.00;100011.94;10358798;28;20494;-75
2023/03/06 17:01:47;;;;;;;1.70;0.90;;;;;;;4.08;100.00;100009.81;10339843;28;20049;-76
2023/03/06 17:06:47;;;;;;;1.38;0.75;;;;;;;4.02;100.00;99992.47;10337028;28;20034;-76
2023/03/06 17:11:48;;;;;;;1.55;0.73;;;;;;;3.89;100.00;99992.69;10350627;28;20038;-75
2023/03/06 17:16:49;;;;;;;3.03;0.80;;;;;;;3.92;100.00;100003.13;10302095;28;20058;-75
2023/03/06 17:21:49;;;;;;;3.65;1.20;;;;;;;3.80;100.00;100020.25;10343873;28;20080;-76
2023/03/06 17:26:50;;;;;;;3.60;1.17;;;;;;;3.37;100.00;100040.25;10355765;28;20038;-76
2023/03/06 17:31:50;;;;;;;3.58;1.90;;;;;;;2.81;100.00;100036.69;10348150;28;20485;-76
2023/03/06 17:36:51;;;;;;;4.70;3.33;;;;;;;2.46;100.00;100030.09;10395445;28;20083;-75
2023/03/06 17:41:51;;;;;;;5.32;3.90;;;;;;;2.42;100.00;100051.44;10412416;28;20044;-74
2023/03/06 17:46:52;;;;;;;7.43;5.20;;;;;;;2.32;100.00;100048.41;10405706;28;20099;-74
2023/03/06 17:51:53;;;;;;;8.05;4.93;;;;;;;2.24;100.00;100035.09;10435583;28;20037;-74
2023/03/06 17:56:55;;;;;;;8.10;5.40;;;;;;;2.26;100.00;100038.41;10417538;28;20037;-74
2023/03/06 18:01:56;;;;;;;12.43;5.20;;;;;;;2.27;100.00;100032.72;10451668;28;20067;-74
2023/03/06 18:06:57;;;;;;;9.07;5.65;;;;;;;2.03;100.00;99990.94;10367721;28;20037;-75
2023/03/06 18:11:57;;;;;;;9.95;6.38;;;;;;;2.16;100.00;100007.13;10432221;28;20032;-74
2023/03/06 18:16:58;;;;;;;14.75;8.68;;;;;;;2.07;100.00;100000.31;10428839;28;20413;-75
2023/03/06 18:21:59;;;;;;;16.42;10.30;;;;;;;2.08;100.00;99984.84;10425084;28;20053;-75
2023/03/06 18:26:59;;;;;;;17.23;10.07;;;;;;;2.08;100.00;99987.56;10441111;28;20049;-69
2023/03/06 18:32:00;;;;;;;18.60;10.48;;;;;;;2.00;100.00;99961.50;10431322;28;20033;-75
2023/03/06 18:37:01;;;;;;;20.88;11.23;;;;;;;1.98;100.00;99952.75;10417407;28;20147;-75
2023/03/06 18:42:01;;;;;;;20.02;12.85;;;;;;;1.89;100.00;99937.81;10430629;28;20037;-75
2023/03/06 18:47:02;;;;;;;19.85;12.05;;;;;;;2.03;100.00;99944.78;10409140;28;20029;-74
2023/03/06 18:52:03;;;;;;;21.85;12.15;;;;;;;1.95;100.00;99912.50;10448683;28;20041;-74
2023/03/06 18:57:03;;;;;;;21.60;13.10;;;;;;;2.08;100.00;99915.06;10416444;28;20044;-75
2023/03/06 19:02:04;;;;;;;21.42;13.15;;;;;;;2.05;100.00;99901.09;10416018;28;20045;-75
2023/03/06 19:07:04;;;;;;;21.95;12.77;;;;;;;1.95;100.00;99897.03;10449189;28;20033;-75
2023/03/06 19:12:05;;;;;;;23.25;12.85;;;;;;;1.98;100.00;99895.75;10400428;28;20044;-75
2023/03/06 19:17:06;;;;;;;22.60;13.38;;;;;;;1.96;100.00;99892.41;10427851;28;20068;-74
2023/03/06 19:22:06;;;;;;;25.90;13.95;;;;;;;1.95;100.00;99874.47;10421239;28;20052;-74
2023/03/06 19:27:07;;;;;;;26.15;14.48;;;;;;;1.81;100.00;99862.91;10433681;28;20573;-75
2023/03/06 19:32:07;;;;;;;23.95;14.38;;;;;;;1.75;100.00;99850.22;10431098;28;20041;-76
2023/03/06 19:37:07;;;;;;;30.00;16.58;;;;;;;1.69;100.00;99824.78;10415658;28;20029;-74
2023/03/06 19:42:08;;;;;;;28.38;16.20;;;;;;;1.74;100.00;99824.97;10432288;28;20045;-75
2023/03/06 19:47:09;;;;;;;29.10;15.65;;;;;;;1.78;100.00;99830.78;10433741;28;20029;-74
2023/03/06 19:52:09;;;;;;;28.65;16.27;;;;;;;1.80;100.00;99813.22;10448900;28;20033;-74
2023/03/06 19:57:10;;;;;;;31.90;16.85;;;;;;;1.76;100.00;99794.91;10414961;28;20041;-74
2023/03/06 20:02:11;;;;;;;35.70;17.48;;;;;;;1.75;100.00;99782.38;10449961;28;20037;-75
2023/03/06 20:07:11;;;;;;;34.63;18.27;;;;;;;1.71;100.00;99765.72;10417418;28;20032;-74
2023/03/06 20:12:13;;;;;;;38.17;20.17;;;;;;;1.83;100.00;99762.28;10419360;28;20506;-76
2023/03/06 20:17:13;;;;;;;38.47;20.75;;;;;;;1.79;100.00;99757.28;10419879;28;20029;-77
2023/03/06 20:22:14;;;;;;;39.40;21.52;;;;;;;1.67;100.00;99729.22;10422909;28;20497;-74
2023/03/06 20:27:14;;;;;;;40.50;21.45;;;;;;;1.81;100.00;99728.03;10454801;28;20037;-74
2023/03/06 20:32:15;;;;;;;37.65;20.13;;;;;;;1.78;100.00;99708.69;10437206;28;20045;-74
2023/03/06 20:37:15;;;;;;;40.33;20.77;;;;;;;1.87;100.00;99710.03;10422426;28;20040;-75
2023/03/06 20:42:16;;;;;;;52.03;22.80;;;;;;;1.96;100.00;99707.84;10456782;28;20052;-75
2023/03/06 20:47:17;;;;;;;50.17;25.05;;;;;;;1.78;100.00;99657.94;10397583;28;20040;-76
2023/03/06 20:52:17;;;;;;;54.00;27.98;;;;;;;2.08;100.00;99688.91;10437513;28;20044;-74
2023/03/06 20:57:18;;;;;;;63.88;30.67;;;;;;;2.11;100.00;99662.16;10421216;28;20045;-75
2023/03/06 21:02:18;;;;;;;60.83;27.95;;;;;;;2.09;100.00;99683.25;10439894;28;20359;-77
2023/03/06 21:07:19;;;;;;;58.42;29.38;;;;;;;2.14;100.00;99656.25;10421814;28;20029;-76
2023/03/06 21:12:19;;;;;;;70.20;30.90;;;;;;;2.08;100.00;99630.00;10389369;28;20042;-77
2023/03/06 21:17:20;;;;;;;59.97;27.75;;;;;;;2.19;100.00;99636.53;10369821;28;20037;-76
2023/03/06 21:22:20;;;;;;;58.92;29.73;;;;;;;2.21;100.00;99624.41;10367802;28;20044;-76
2023/03/06 21:27:20;;;;;;;58.83;32.50;;;;;;;2.19;100.00;99610.25;10370253;28;20516;-75
2023/03/06 21:32:21;;;;;;;56.80;29.52;;;;;;;2.05;100.00;99592.47;10354630;28;20041;-75
2023/03/06 21:37:22;;;;;;;53.30;29.23;;;;;;;2.10;100.00;99595.31;10364042;28;20084;-75
2023/03/06 21:42:22;;;;;;;60.28;27.73;;;;;;;2.13;100.00;99589.44;10367724;28;20054;-75
2023/03/06 21:47:23;;;;;;;55.05;29.73;;;;;;;2.08;100.00;99586.56;10360664;28;20121;-75
2023/03/06 21:52:23;;;;;;;58.22;29.25;;;;;;;2.00;100.00;99557.03;10334358;28;20120;-76
2023/03/06 21:57:25;;;;;;;61.28;29.35;;;;;;;2.06;100.00;99556.09;10346457;28;20124;-75
2023/03/06 22:02:26;;;;;;;57.47;27.95;;;;;;;1.99;100.00;99555.38;10369678;28;20168;-74
2023/03/06 22:07:27;;;;;;;51.97;24.98;;;;;;;1.93;100.00;99556.31;10322876;28;20034;-75
2023/03/06 22:12:28;;;;;;;55.90;27.50;;;;;;;1.97;100.00;99557.50;10371955;28;20038;-75
2023/03/06 22:17:29;;;;;;;56.95;26.02;;;;;;;1.85;100.00;99532.19;10347451;28;20035;-74
2023/03/06 22:22:29;;;;;;;52.67;26.55;;;;;;;1.77;100.00;99536.88;10328622;28;20052;-74
2023/03/06 22:27:30;;;;;;;50.15;24.00;;;;;;;1.88;100.00;99542.59;10354833;28;20070;-77
2023/03/06 22:32:30;;;;;;;51.10;25.83;;;;;;;1.81;100.00;99527.22;10393323;28;20045;-75
2023/03/06 22:37:31;;;;;;;54.88;24.75;;;;;;;1.84;100.00;99530.53;10410184;28;20040;-71
2023/03/06 22:42:32;;;;;;;49.58;24.75;;;;;;;1.74;100.00;99518.34;10360514;28;20057;-76
2023/03/06 22:47:35;;;;;;;54.85;24.40;;;;;;;0.98;100.00;99401.28;10414400;28;20032;-75
2023/03/06 22:52:35;;;;;;;45.35;22.73;;;;;;;1.77;100.00;99498.88;10420296;28;20544;-75
2023/03/06 22:57:36;;;;;;;50.13;25.77;;;;;;;1.80;100.00;99503.88;10399936;28;20037;-75
2023/03/06 23:02:37;;;;;;;49.50;25.00;;;;;;;1.83;100.00;99490.91;10419569;28;20064;-75
2023/03/06 23:07:37;;;;;;;51.28;23.95;;;;;;;1.72;100.00;99468.91;10433023;28;20482;-75